x

9439040 - Astoria, Or (asto3) Weather Station

12:54 - Wed 28th Sep 2016 All times are PDT. -7 hours from GMT.

  • Wind
    9mph, 11mph gusts
  • Sea Temp 65°f
  • Luft Temp 60°f
  • Sea Pressure 1018.4mb
  • 9439040 - Astoria, Or
  • 9439040 - Astoria, Or

More Historic Weather Station data

Upgrade to MSW Pro to gain access to the past 30 days of data for over 8000 Wavebouys and Weather Stations around the globe.

Join Pro

Comparision Forecast

View Surf forecast
   
Mi 09/28 12:54 9 11 mph 1018.4mb 65f 60f
12:48 10 11 mph 1018.4mb 65f 60f
12:42 10 11 mph 1018.5mb 65f 60f
12:36 9 10 mph 1018.6mb 65f 60f
12:30 8 10 mph 1018.6mb 65f 60f
12:24 8 10 mph 1018.6mb 65f 60f
12:18 8 10 mph 1018.6mb 65f 60f
12:12 8 9 mph 1018.7mb 65f 60f
12:06 8 9 mph 1018.7mb 65f 60f
12:00 7 8 mph 1018.8mb 65f 59f
11:54 6 7 mph 1018.8mb 65f 60f
11:48 6 8 mph 1018.8mb 65f 60f
11:42 6 7 mph 1018.8mb 65f 60f
11:36 6 7 mph 1018.8mb 65f 60f
11:30 5 6 mph 1018.8mb 65f 60f
11:24 1 2 mph 1018.9mb 65f 61f
11:18 2 3 mph 1018.8mb 65f 60f
11:12 1 3 mph 1018.9mb 65f 60f
11:06 2 3 mph 1019mb 65f 60f
11:00 3
mph
1019.1mb 65f 59f
10:54 1 2 mph 1019mb 65f 59f
10:48 2 3 mph 1019.1mb 65f 59f
10:42 2 3 mph 1019.1mb 65f 59f
10:36 2
mph
1019.1mb 65f 59f
10:30 1 2 mph 1019.2mb 65f 59f
10:24 2
mph
1019.2mb 65f 59f
10:18 1 2 mph 1019.2mb 65f 60f
10:12 1 2 mph 1019.2mb 65f 59f
10:06 1 2 mph 1019.2mb 65f 60f
10:00 1 2 mph 1019.3mb 65f 59f
9:54  -  2 mph 1019.2mb 65f 59f
9:48  -  2 mph 1019.3mb 65f 58f
9:42 2 3 mph 1019.3mb 65f 58f
9:36 3
mph
1019.2mb 65f 58f
9:30  -  2 mph 1019.3mb 65f 59f
9:24 2 3 mph 1019.3mb 65f 57f
9:18 2 3 mph 1019.3mb 65f 57f
9:12 2 5 mph 1019.2mb 65f 57f
9:06 2 5 mph 1019.2mb 65f 57f
9:00 3 5 mph 1019.2mb 65f 57f
8:54 3 5 mph 1019.2mb 65f 57f
8:48 3 5 mph 1019.2mb 65f 57f
8:42 2 3 mph 1019.2mb 65f 56f
8:36  -  2 mph 1019.2mb 65f 55f
8:30 1 3 mph 1019.2mb 65f 55f
8:24 3 5 mph 1019.2mb 65f 55f
8:18 3 5 mph 1019.2mb 65f 56f
8:12 2 3 mph 1019.1mb 65f 56f
8:06 1 5 mph 1019.1mb 65f 55f
8:00 2 5 mph 1019.1mb 65f 56f
7:54 2 6 mph 1019.1mb 65f 56f
7:48 3 6 mph 1019mb 65f 56f
7:42 3 6 mph 1019mb 65f 56f
7:36 2 6 mph 1019mb 65f 54f
7:30 3 6 mph 1019mb 65f 54f
7:24 1 3 mph 1019mb 65f 55f
7:18 3 5 mph 1019mb 64f 55f
7:12  -  3 mph 1019mb 64f 54f
7:06 2
mph
1019mb 64f 54f
7:00 1 2 mph 1018.9mb 64f 54f
6:54 1 2 mph 1018.9mb 64f 54f
6:48 1 2 mph 1018.8mb 64f 54f
6:42 3 6 mph 1018.8mb 64f 54f
6:36 3
mph
1018.9mb 64f 55f
6:30 1 3 mph 1018.8mb 64f 55f
6:24  -  3 mph 1018.8mb 64f 55f
6:18 2 3 mph 1018.8mb 64f 55f
6:12 2 3 mph 1018.8mb 64f 56f
6:06 2 3 mph 1018.8mb 64f 56f
6:00  -  1 mph 1018.8mb 64f 56f
5:54  -  2 mph 1018.9mb 64f 56f
5:48 1 2 mph 1018.8mb 64f 56f
5:42 1 3 mph 1018.8mb 64f 56f
5:36  -  2 mph 1018.7mb 64f 56f
5:30 2
mph
1018.7mb 64f 56f
5:24 1 3 mph 1018.7mb 64f 56f
5:18 2 3 mph 1018.7mb 64f 56f
5:12  -  2 mph 1018.6mb 64f 56f
5:06 2
mph
1018.7mb 64f 56f
5:00  -  1 mph 1018.5mb 64f 56f
4:54  -  1 mph 1018.6mb 65f 56f
4:48  -  1 mph 1018.6mb 65f 56f
4:42 1 2 mph 1018.5mb 65f 57f
4:36 1 2 mph 1018.6mb 65f 57f
4:30 1 3 mph 1018.5mb 65f 57f
4:24 1 3 mph 1018.5mb 65f 58f
4:18 3 5 mph 1018.5mb 65f 58f
4:12 3 5 mph 1018.6mb 65f 58f
4:06 3 7 mph 1018.6mb 65f 57f
4:00 2 6 mph 1018.7mb 65f 58f
3:54 3 5 mph 1018.7mb 65f 59f
3:48 1 3 mph 1018.7mb 65f 58f
3:42 2 3 mph 1018.7mb 64f 58f
3:36 2 3 mph 1018.8mb 64f 58f
3:30 2 5 mph 1018.9mb 64f 58f
3:24 2 3 mph 1018.9mb 64f 59f
3:18 3 6 mph 1018.9mb 64f 60f
3:12 6 7 mph 1019mb 64f 59f
3:06 5 7 mph 1019mb 64f 59f
3:00 6
mph
1018.9mb 64f 60f
2:54 5 6 mph 1018.9mb 65f 59f
2:48 3 6 mph 1019mb 65f 59f
2:42 1 3 mph 1019mb 65f 58f
2:36  -  2 mph 1019.2mb 65f 58f
2:30  -  1 mph 1019.1mb 65f 59f
2:24 2 3 mph 1019.2mb 65f 59f
2:18 2 5 mph 1019.1mb 65f 59f
2:12 2 5 mph 1019.1mb 65f 59f
2:06 3 5 mph 1019.2mb 65f 59f
2:00 3 6 mph 1019.2mb 65f 59f
1:54 3 6 mph 1019.3mb 65f 60f
1:48 6 8 mph 1019.2mb 65f 60f
1:42 6 8 mph 1019.2mb 65f 60f
1:36 7 9 mph 1019.2mb 65f 60f
1:30 7 9 mph 1019.3mb 65f 60f
1:24 6 8 mph 1019.4mb 65f 60f
1:18 2
mph
1019.4mb 65f 58f
1:12  -  3 mph 1019.4mb 65f 58f
1:06 3 7 mph 1019.4mb 65f 58f
1:00 5 7 mph 1019.4mb 65f 59f
12:54 3 7 mph 1019.3mb 65f 59f
12:48 5 8 mph 1019.3mb 65f 59f
12:42 6 7 mph 1019.3mb 65f 59f
12:36 3 7 mph 1019.3mb 65f 59f
12:30 5 7 mph 1019.2mb 65f 59f
12:24 7 9 mph 1019.3mb 65f 59f
12:18 6 8 mph 1019.3mb 65f 59f
12:12 7 10 mph 1019.3mb 65f 59f
12:06 7 9 mph 1019.3mb 65f 59f
12:00 5 8 mph 1019.4mb 65f 59f
Di 09/27 11:54 3 7 mph 1019.4mb 65f 58f
11:48 2 7 mph 1019.4mb 65f 59f
11:42  -  5 mph 1019.4mb 65f 59f
11:36 2 11 mph 1019.5mb 65f 59f
11:30 5 9 mph 1019.6mb 65f 59f
11:24 6 8 mph 1019.7mb 65f 59f
11:18 2 6 mph 1019.6mb 65f 59f
11:12 3 7 mph 1019.6mb 65f 59f
11:06 6 8 mph 1019.6mb 65f 59f
11:00 6 10 mph 1019.6mb 65f 59f
10:54 8 11 mph 1019.7mb 65f 59f
10:48 8 11 mph 1019.7mb 65f -
10:42 10 13 mph 1019.7mb 65f -
10:36 10 14 mph 1019.7mb 65f -
10:30 13 15 mph 1019.6mb 65f 59f
10:24 11 15 mph 1019.6mb 65f 59f
10:18 13 15 mph 1019.5mb 65f 59f
10:12 11 15 mph 1019.5mb 65f 59f
10:06 13 16 mph 1019.5mb 66f 59f
10:00 13 15 mph 1019.6mb 66f 60f
9:54 11 16 mph 1019.6mb 66f 60f
9:48 14 17 mph 1019.6mb 66f 60f
9:42 14 17 mph 1019.6mb 66f 60f
9:36 14 16 mph 1019.6mb 66f 60f
9:30 15 17 mph 1019.6mb 66f 60f
9:24 14 18 mph 1019.6mb 66f 60f
9:18 15 17 mph 1019.6mb 66f 60f
9:12 16 20 mph 1019.6mb 66f 60f
9:06 17 20 mph 1019.6mb 66f 60f
9:00 16 21 mph 1019.5mb 66f 60f
8:54 17 21 mph 1019.5mb 66f 59f
8:48 16 20 mph 1019.6mb 66f 59f
8:42 17 21 mph 1019.6mb 66f 59f
8:36 17 21 mph 1019.5mb 66f 59f
8:30 17 21 mph 1019.5mb 66f 59f
8:24 17 20 mph 1019.5mb 66f 60f
8:18 17 22 mph 1019.5mb 66f 60f
8:12 18 22 mph 1019.5mb 66f 60f
8:06 17 21 mph 1019.5mb 66f 60f
8:00 13 17 mph 1019.6mb 66f 60f
7:54 10 14 mph 1019.6mb 66f 61f
7:48 8 10 mph 1019.6mb 66f 61f
7:42 7 13 mph 1019.6mb 66f 62f
7:36 9 15 mph 1019.6mb 65f 62f
7:30 3 6 mph 1019.5mb 65f 62f
7:24 2 11 mph 1019.5mb 65f 62f
7:18 3 6 mph 1019.6mb 65f 62f
7:12 5 8 mph 1019.5mb 65f 62f
7:06 8 16 mph 1019.6mb 65f 62f
7:00 14 16 mph 1019.6mb 65f 62f
6:54 14 21 mph 1019.7mb 65f 62f
6:48 17 20 mph 1019.6mb 65f 62f
6:42 16 20 mph 1019.6mb 65f 62f
6:36 15 18 mph 1019.6mb 65f 62f
6:30 13 16 mph 1019.6mb 65f 62f
6:24 13 16 mph 1019.6mb 65f 62f
6:18 14 17 mph - 65f 63f
6:12 10 11 mph - 65f 63f
6:06 6 8 mph - 65f 64f
6:00 6
mph
1019.7mb 66f 65f
5:54 6 7 mph 1019.6mb 65f 65f
5:48 6 8 mph 1019.6mb 65f 65f
5:42 5 6 mph 1019.5mb 65f 65f
5:36 5 11 mph 1019.6mb 65f 65f
5:30 2 11 mph 1019.6mb 65f 65f
5:24 5 13 mph 1019.6mb 65f 64f
5:18 8 10 mph 1019.6mb 65f 64f
5:12 6 13 mph 1019.7mb 65f 64f
5:06 7 15 mph 1019.7mb 65f 64f
5:00 8 14 mph 1019.8mb 65f 63f
4:54 11 14 mph 1019.9mb 65f 63f
4:48 11 16 mph 1020.1mb 65f -
4:42 11 14 mph 1020.2mb 65f -
4:36 11 16 mph 1020.2mb 65f -
4:30 10 15 mph 1020.3mb 65f 63f
4:24 10 15 mph 1020.4mb 65f 63f
4:18 10 16 mph 1020.4mb 64f 63f
4:12 9 14 mph 1020.4mb 64f 63f
4:06 10 14 mph 1020.5mb 65f 62f
4:00 9 15 mph 1020.5mb 65f 63f
3:54 9 14 mph 1020.6mb 65f 63f
3:48 9 14 mph 1020.6mb 65f 63f
3:42 9 14 mph 1020.6mb 65f 63f
3:36 9 14 mph 1020.7mb 64f 63f
3:30 7 14 mph 1020.7mb 64f 63f
3:24 8 14 mph 1020.8mb 64f 63f
3:18 9 13 mph 1020.8mb 64f 63f
3:12 6 13 mph 1020.9mb 64f 63f
3:06 7 13 mph 1021mb 64f 63f
3:00 9 14 mph 1021.1mb 64f 63f
2:54 8 14 mph 1021.1mb 65f 63f
2:48 8 11 mph - 65f 63f
2:42 7 11 mph - 65f 63f
2:36 6 9 mph - 65f 64f
2:30 2 13 mph 1021.4mb 65f 64f
2:24 7 11 mph 1021.4mb 65f 63f
2:18 8 10 mph 1021.5mb 65f 63f
2:12 8 11 mph 1021.5mb 65f 63f
2:06 8 11 mph 1021.6mb 65f 63f
2:00 6 11 mph 1021.6mb 64f 63f
1:54 7 10 mph 1021.7mb 65f 63f
1:48 6 10 mph 1021.8mb 65f 63f
1:42 5 10 mph 1021.8mb 65f 63f
1:36 3 10 mph 1021.8mb 64f 63f
1:30 6 10 mph 1021.9mb 64f 63f
1:24 3 11 mph 1021.9mb 64f 63f
1:18 5 10 mph 1021.9mb 64f 62f
1:12 2 8 mph 1021.9mb 64f 63f
1:06 3 8 mph 1022mb 64f 62f
1:00 3 8 mph 1022mb 64f 62f
12:54 2 6 mph 1022.1mb 64f 63f
12:48 1 9 mph 1022mb 64f 63f
12:42 5 10 mph 1022.1mb 64f 62f
12:36 2 10 mph 1022.1mb 64f 62f
12:30 5 10 mph 1022.1mb 64f 62f
12:24 6 10 mph 1022.2mb 64f 62f
12:18 3 6 mph 1022.3mb 64f 62f
12:12 2 9 mph 1022.3mb 64f 62f
12:06 5 9 mph 1022.3mb 64f 62f
12:00 3 8 mph 1022.3mb 64f 62f
11:54 3 10 mph 1022.4mb 64f 62f
11:48 5 9 mph 1022.5mb 64f 62f
11:42 3 8 mph 1022.5mb 65f 62f
11:36 5 8 mph 1022.6mb 65f 61f
11:30 3 6 mph 1022.7mb 65f 61f
11:24 5 8 mph 1022.7mb 65f 61f
11:18 5 8 mph 1022.7mb 65f 61f
11:12 5 7 mph 1022.8mb 65f 61f
11:06 6 8 mph 1022.8mb 65f 61f
11:00 3 6 mph 1022.8mb 65f 61f
10:54 2 5 mph 1022.8mb 65f 61f
10:48 2 7 mph 1022.8mb 65f 61f
10:42 6 7 mph 1022.7mb 65f 60f
10:36 6 9 mph 1022.7mb 65f 60f
10:30 6 9 mph 1022.7mb 65f 60f
10:24 8 10 mph 1022.7mb 65f 60f
10:18 8 10 mph 1022.7mb 65f 59f
10:12 6 8 mph 1022.7mb 65f 60f
10:06 8 10 mph 1022.8mb 65f 59f
10:00 7 8 mph 1022.7mb 65f 59f
9:54 3 6 mph 1022.7mb 65f 60f
9:48 6 8 mph 1022.6mb 65f 60f
9:42 9 11 mph 1022.5mb 65f 60f
9:36 10 13 mph 1022.5mb 65f 59f
9:30 11 13 mph 1022.5mb 65f 60f
9:24 7 9 mph 1022.5mb 65f 60f
9:18 5 7 mph 1022.5mb 65f 60f
9:12 5 7 mph 1022.5mb 65f 60f
9:06 6 8 mph 1022.4mb 65f 60f
9:00 7 10 mph 1022.4mb 65f 60f
8:54 8 11 mph 1022.4mb 65f 60f
8:48 9 11 mph 1022.4mb 65f 60f
8:42 8 10 mph 1022.3mb 65f 60f
8:36 5 7 mph 1022.3mb 65f 60f
8:30 5 7 mph 1022.2mb 65f 60f
8:24 6 9 mph 1022.2mb 65f 60f
8:18 7 8 mph 1022.1mb 65f 60f
8:12 8 10 mph 1022mb 65f 60f
8:06 10 11 mph 1022mb 65f 60f
8:00 8 13 mph 1021.9mb 65f 60f
7:54 11 13 mph 1021.9mb 65f 60f
7:48 9 11 mph 1021.9mb 65f 60f
7:42 8 10 mph 1021.9mb 65f 60f
7:36 8 13 mph 1021.9mb 65f 60f
7:30 11 14 mph 1021.9mb 65f 60f
7:24 9 13 mph 1021.8mb 65f 60f
7:18 10 13 mph 1021.8mb 65f 60f
7:12 9 14 mph 1021.7mb 65f 60f
7:06 11 15 mph 1021.7mb 65f 60f
7:00 10 14 mph 1021.6mb 65f 60f
6:54 13 15 mph 1021.6mb 65f 60f
6:48 14 15 mph 1021.6mb 65f 60f
6:42 10 15 mph 1021.6mb 65f 61f
6:36 14 16 mph 1021.6mb 65f 61f
6:30 14 16 mph 1021.6mb 65f 61f
6:24 10 13 mph 1021.6mb 65f 61f
6:18 9 11 mph 1021.6mb 65f 61f
6:12 9 14 mph 1021.6mb 65f 62f
6:06 13 16 mph 1021.6mb 64f 62f
6:00 15 17 mph 1021.5mb 64f 62f
5:54 16 18 mph 1021.5mb 64f 62f
5:48 15 18 mph 1021.5mb 64f 61f
5:42 15 18 mph 1021.4mb 64f 61f
5:36 13 15 mph 1021.4mb 65f 61f
5:30 2 6 mph 1021.4mb 65f 62f
5:24  -  6 mph 1021.4mb 65f 62f
5:18 1 5 mph 1021.3mb 65f 62f
5:12 1 6 mph 1021.3mb 65f 62f
5:06 2 7 mph 1021.2mb 65f 63f
5:00 1 6 mph 1021.2mb 65f 63f
4:54  -  3 mph 1021.1mb 65f 63f
4:48  -  3 mph 1021.1mb 64f 63f
4:42 2 3 mph 1021.1mb 64f 63f
4:36 2 6 mph 1021.1mb 64f 63f
4:30 5 6 mph 1021.1mb 64f 63f
4:24 2 5 mph 1021.1mb 64f 62f
4:18 1 3 mph 1021.2mb 64f 62f
4:12  -  2 mph 1021.2mb 64f 63f
4:06  -  3 mph 1021.2mb 64f 63f
4:00  -  3 mph 1021.1mb 64f 63f
3:54 2 6 mph 1021.1mb 64f 63f
3:48 1 5 mph 1021mb 64f 62f
3:42 2 5 mph 1021mb 64f 62f
3:36 1 3 mph 1021mb 64f 62f
3:30  -  5 mph 1021.1mb 64f 62f
3:24  -  5 mph 1021.1mb 64f 62f
3:18 3 7 mph 1021mb 64f 62f
3:12 3 7 mph 1021mb 64f 63f
3:06 3 6 mph 1021mb 64f 62f
3:00 3 6 mph 1021mb 64f 62f
2:54 2 6 mph 1021mb 64f 62f
2:48 3 7 mph 1020.9mb 64f 62f
2:42 5 6 mph 1020.9mb 64f 62f
2:36 3 6 mph 1020.9mb 64f 62f
2:30  -  5 mph 1020.9mb 64f 62f
2:24 2 7 mph 1020.9mb 64f 62f
2:18 1 7 mph 1020.9mb 64f 62f
2:12  -  6 mph 1020.8mb 64f 62f
2:06 1 3 mph 1020.8mb 64f 62f
2:00 3 6 mph 1020.8mb 64f 62f
1:54 2 6 mph 1020.8mb 64f 62f
1:48 2 7 mph 1020.7mb 64f 62f
1:42 2 7 mph 1020.7mb 64f 62f
1:36 1 5 mph 1020.7mb 65f 62f
1:30 1 7 mph 1020.7mb 65f 62f
1:24 2 5 mph 1020.7mb 65f 63f
1:18  -  3 mph 1020.7mb 65f 62f
1:12  -  5 mph 1020.7mb 65f 63f
1:06 3 7 mph 1020.6mb 65f 62f
1:00 5 8 mph 1020.6mb 65f 62f
12:54  -  3 mph 1020.6mb 65f 63f
12:48 3 7 mph 1020.5mb 65f 63f
12:42 5 6 mph 1020.5mb 65f 63f
12:36  -  2 mph 1020.6mb 65f 63f
12:30  -  2 mph 1020.6mb 65f 63f
12:24 1 2 mph 1020.6mb 65f 63f
12:18 1 3 mph 1020.5mb 64f 63f
12:12 1 6 mph 1020.5mb 64f 63f
12:06 3 5 mph 1020.5mb 64f 63f
12:00 5 6 mph 1020.5mb 64f 62f
Mo 09/26 11:54 5 7 mph 1020.4mb 64f 62f
11:48 6 7 mph 1020.4mb 64f -
11:42 3 6 mph 1020.4mb 64f -
11:36  -  3 mph 1020.4mb 64f -
11:30 1 5 mph 1020.3mb 64f 62f
11:24 2 7 mph 1020.3mb 64f 62f
11:18 1 5 mph 1020.2mb 64f 63f
11:12 2 5 mph 1020.2mb 64f 62f
11:06 2 5 mph 1020.2mb 64f 62f
11:00 1 3 mph 1020.2mb 65f 62f
10:54  -  3 mph 1020.3mb 65f 63f
10:48 1 3 mph 1020.3mb 65f -
10:42 1 3 mph 1020.3mb 65f -
10:36 2 5 mph 1020.3mb 65f -
10:30 1 5 mph 1020.2mb 65f 62f
10:24 3 5 mph 1020.2mb 65f 63f
10:18 3 8 mph 1020.1mb 65f 63f
10:12 7 10 mph 1020.2mb 65f 63f
10:06 7 10 mph 1020.2mb 65f 63f
10:00 7 9 mph 1020.1mb 65f 63f
9:54 7 9 mph 1020.1mb 65f 63f
9:48 5 8 mph 1020.1mb 65f 63f
9:42 5 9 mph 1020mb 65f 63f
9:36 5 7 mph 1019.9mb 65f 63f
9:30 5 9 mph 1019.9mb 65f 63f
9:24 7 10 mph 1019.8mb 66f 63f
9:18 2 5 mph 1019.8mb 66f 63f
9:12 3 8 mph 1019.7mb 65f 63f
9:06 3 6 mph 1019.7mb 65f 63f
9:00 3 7 mph 1019.7mb 65f 63f
8:54 7 10 mph 1019.6mb 65f 63f
8:48 3 8 mph 1019.5mb 65f 63f
8:42 5 8 mph 1019.5mb 65f 64f
8:36 3 7 mph 1019.4mb 65f 64f
8:30 2 3 mph 1019.5mb 65f 64f
8:24 2 7 mph 1019.4mb 65f 64f
8:18 5 8 mph 1019.4mb 65f 64f
8:12 6 9 mph 1019.3mb 65f 64f
8:06 8 10 mph 1019.3mb 65f 64f
8:00 6 10 mph 1019.3mb 65f 64f
7:54 6 8 mph 1019.2mb 65f 64f
7:48 3 8 mph 1019.1mb 65f 64f
7:42 1 3 mph 1019mb 65f 64f
7:36  -  2 mph 1019mb 65f 64f
7:30  -  2 mph 1019mb 65f 64f
7:24 1 5 mph 1018.9mb 65f 64f
7:18 2 5 mph 1018.9mb 65f 64f
7:12  -  3 mph 1018.7mb 65f 64f
7:06 2 3 mph 1018.6mb 65f 64f
7:00 2 7 mph 1018.5mb 65f 64f
6:54 5 7 mph 1018.5mb 65f 64f
6:48 3 8 mph 1018.4mb 65f 65f
6:42 7 11 mph 1018.4mb 65f 64f
6:36 10 11 mph 1018.4mb 65f 65f
6:30 7 9 mph 1018.3mb 65f 65f
6:24 3 7 mph 1018.3mb 65f 66f
6:18  -  mph 1018.2mb 65f 66f
6:12  -  mph 1018.2mb 65f 66f
6:06  -  mph 1018.1mb 65f 66f
6:00 6 9 mph 1018.1mb 65f 66f
5:54 8 14 mph 1018.1mb 65f 66f
5:48 10 15 mph 1018.1mb 65f 66f
5:42 14 16 mph 1018.1mb 65f 66f
5:36 8 11 mph 1018.1mb 66f 67f
5:30 9 13 mph 1018.1mb 66f 67f
5:24 9 14 mph 1018.1mb 65f 67f
5:18  -  mph 1018.1mb 65f 67f
5:12  -  mph 1018.1mb 65f 67f
5:06  -  mph 1018mb 65f 67f
5:00 10 14 mph 1018mb 65f 68f
4:54 1 3 mph 1018mb 65f 71f
4:48 2 5 mph 1018mb 65f 70f
4:42 2 3 mph 1017.9mb 65f 71f
4:36 1 2 mph 1017.9mb 65f 71f
4:30 1 3 mph 1018mb 65f 71f
4:24  -  2 mph 1017.9mb 65f 71f
4:18 1 6 mph 1017.9mb 65f 70f
4:12 6 8 mph 1017.9mb 65f 69f
4:06 6 9 mph 1017.9mb 65f 68f
4:00 8 11 mph 1017.9mb 65f 68f
3:54 8 10 mph 1017.9mb 65f 68f
3:48 8 10 mph 1017.8mb 65f -
3:42 9 11 mph 1017.8mb 64f -
3:36 8 13 mph 1017.9mb 64f -
3:30 10 14 mph - 64f 67f
3:24 10 14 mph - 64f 67f
3:18 9 14 mph 1017.9mb 64f 67f
3:12 9 15 mph 1017.9mb 64f 67f
3:06 8 16 mph 1017.9mb 64f 67f
3:00 14 17 mph 1017.8mb 64f 67f
2:54 14 17 mph 1017.8mb 65f 67f
2:48 10 16 mph 1017.7mb 65f 67f
2:42 11 15 mph 1017.7mb 64f 67f
2:36 8 15 mph 1017.6mb 64f 67f
2:30 11 15 mph 1017.6mb 63f 67f
2:24 8 15 mph 1017.6mb 64f 68f
2:18 8 14 mph 1017.7mb 64f 69f
2:12 8 11 mph 1017.8mb 64f 69f
2:06 8 13 mph 1017.8mb 64f 68f
2:00 7 11 mph 1017.9mb 64f 67f
1:54 7 10 mph 1018mb 64f 67f
1:48 7 11 mph 1017.9mb 64f 67f
1:42 8 13 mph 1017.9mb 64f 67f
1:36 6 11 mph 1017.9mb 64f 66f
1:30 8 13 mph 1017.9mb 64f 66f
1:24 6 10 mph 1018mb 64f 66f
1:18 6 8 mph 1017.9mb 64f 67f
1:12 5 9 mph 1017.8mb 64f 67f
1:06  -  5 mph 1017.8mb 64f 69f
1:00 1 3 mph 1017.8mb 64f 69f
12:54 1 5 mph 1017.8mb 64f 69f
12:48 1 2 mph 1017.8mb 64f 70f
12:42 2
mph
1017.7mb 64f 70f
12:36 2 3 mph 1017.6mb 64f 69f
12:30 2 3 mph 1017.5mb 64f 69f
12:24  -  2 mph 1017.5mb 64f 70f
12:18 1 3 mph 1017.6mb 64f 69f
12:12 2 3 mph 1017.5mb 64f 69f
12:06 2 7 mph 1017.5mb 64f 69f
12:00 5 9 mph 1017.5mb 64f 68f
11:54 2 7 mph 1017.5mb 64f 68f
11:48 1 2 mph 1017.6mb 64f 68f
11:42  -  3 mph 1017.7mb 64f 68f
11:36 1 3 mph 1017.7mb 64f 68f
11:30 1 7 mph 1017.7mb 64f 67f
11:24 5 7 mph 1017.7mb 64f 66f
11:18 1 6 mph 1017.6mb 64f 67f
11:12 2 7 mph 1017.6mb 64f 67f
11:06 6 9 mph 1017.7mb 64f 66f
11:00 1 3 mph 1017.8mb 64f 67f
10:54 2 3 mph 1017.8mb 64f 67f
10:48 1 8 mph 1017.8mb 64f 67f
10:42 6 9 mph 1017.8mb 64f 66f
10:36 2 3 mph 1017.7mb 64f 66f
10:30 2 5 mph 1017.8mb 64f 66f
10:24 2 5 mph 1017.8mb 64f 66f
10:18 3 6 mph 1017.8mb 64f 64f
10:12 5 7 mph 1017.9mb 65f 64f
10:06 3 7 mph 1018mb 64f 65f
10:00 2 6 mph 1017.9mb 64f 65f
9:54 3 10 mph 1017.8mb 64f 64f
9:48 7 10 mph 1017.8mb 64f 64f
9:42 5 9 mph 1017.8mb 64f 64f
9:36 6 11 mph 1018mb 64f 64f
9:30 7 9 mph 1018mb 64f 64f
9:24 6 10 mph 1017.9mb 64f 63f
9:18 6 9 mph 1018mb 64f 63f
9:12 6 9 mph 1017.9mb 64f 63f
9:06 2 5 mph 1017.7mb 65f 63f
9:00 2 7 mph 1017.9mb 65f 63f
8:54 5 6 mph 1017.9mb 65f 62f
8:48 2 6 mph 1017.8mb 65f 62f
8:42 1 6 mph 1017.7mb 65f 62f
8:36 3 7 mph 1017.9mb 65f 61f
8:30 1 7 mph 1017.7mb 65f 61f
8:24 3 8 mph 1017.7mb 65f 61f
8:18 7 10 mph 1017.7mb 65f 61f
8:12 3 10 mph 1017.8mb 64f 62f
8:06 8 10 mph 1017.8mb 64f 62f
8:00 5 9 mph 1017.9mb 64f 62f
7:54 3 6 mph 1018mb 64f 63f
7:48 1 3 mph 1018mb 64f 62f
7:42 1 5 mph 1018.1mb 64f 63f
7:36  -  6 mph 1018.2mb 64f 62f
7:30 3 6 mph 1018.2mb 64f 62f
7:24 1 3 mph 1018.1mb 64f 62f
7:18 3 7 mph 1018.2mb 64f 62f
7:12 3 7 mph 1018.1mb 64f 63f
7:06 5 7 mph 1018mb 64f 63f
7:00 1 5 mph 1018.1mb 64f 62f
6:54 2 6 mph 1018mb 64f 63f
6:48 1 3 mph 1018.1mb 64f 63f
6:42 1 2 mph 1018mb 64f 62f
6:36 2 11 mph 1018mb 64f 63f
6:30 7 15 mph 1018.1mb 64f 63f
6:24 8 11 mph 1018.2mb 64f 63f
6:18 1 6 mph 1018mb 64f 64f
6:12 2 8 mph 1018mb 64f 64f
6:06 5 16 mph 1018mb 64f 64f
6:00 10 16 mph 1018mb 64f 63f
5:54 10 18 mph 1018mb 64f 64f
5:48 10 16 mph 1017.9mb 64f 64f
5:42 7 14 mph 1018mb 64f 63f
5:36 5 9 mph 1018mb 64f 63f
5:30 5 9 mph 1018mb 64f 63f
5:24 6 9 mph 1018.1mb 64f 63f
5:18 6 11 mph 1018.1mb 64f 63f
5:12 8 10 mph 1018.1mb 64f 63f
5:06 7 10 mph 1018.1mb 64f 64f
5:00 7 10 mph 1018.1mb 64f 64f
4:54 3 7 mph 1018.1mb 64f 63f
4:48 2 5 mph 1018.2mb 64f 64f
4:42 5 13 mph 1018.1mb 64f 64f
4:36 10 16 mph 1018.1mb 64f 64f
4:30 10 15 mph 1018.3mb 64f 64f
4:24 8 13 mph 1018.3mb 64f 64f
4:18 9 16 mph 1018.4mb 64f 64f
4:12 13 18 mph 1018.5mb 64f 64f
4:06 10 14 mph 1018.6mb 64f 64f
4:00 7 10 mph 1018.6mb 64f 64f
3:54 3 6 mph 1018.6mb 64f 63f
3:48 3 6 mph 1018.7mb 64f 64f
3:42  -  2 mph 1018.7mb 64f 63f
3:36 3 7 mph 1018.8mb 64f 64f
3:30 2 5 mph 1018.9mb 64f 63f
3:24 2 6 mph 1018.9mb 64f 64f
3:18 1 5 mph 1019mb 64f 63f
3:12  -  2 mph 1019.1mb 64f 63f
3:06 2 6 mph 1019.2mb 64f 64f
3:00  -  3 mph 1019.4mb 64f 63f
2:54 2 3 mph 1019.6mb 64f 63f
2:48  -  2 mph 1019.6mb 64f 63f
2:42  -  2 mph 1019.7mb 64f 63f
2:36  -  2 mph 1019.8mb 64f 63f
2:30 1 2 mph 1019.7mb 64f 63f
2:24  -  1 mph 1019.8mb 64f 63f
2:18  -  3 mph 1019.9mb 64f 62f
2:12  -  6 mph 1020mb 64f 63f
2:06 6 9 mph 1020.1mb 64f 64f
2:00 7 10 mph 1020.2mb 64f 64f
1:54 2 8 mph 1020.2mb 64f 63f
1:48 5 7 mph 1020.2mb 64f 63f
1:42 3 5 mph 1020.2mb 64f 62f
1:36 2 5 mph 1020.2mb 64f 63f
1:30 3 5 mph 1020.2mb 64f 63f
1:24 2 5 mph 1020.3mb 64f 63f
1:18 2 3 mph 1020.4mb 64f 63f
1:12 3 5 mph 1020.5mb 64f 63f
1:06 5 6 mph 1020.5mb 64f 63f
1:00 5 6 mph 1020.6mb 64f 63f
12:54 6
mph
1020.6mb 64f 64f
12:48 3 5 mph 1020.7mb 64f 65f
12:42 3 7 mph 1020.7mb 64f 66f
12:36 2
mph
1020.8mb 64f 65f
12:30 2 8 mph 1020.8mb 64f 66f
12:24 8 13 mph 1020.9mb 64f 67f
12:18 8 11 mph 1021mb 64f 68f
12:12 6 11 mph 1021mb 64f 68f
12:06 8 13 mph 1021.1mb 64f 68f
12:00 8 11 mph 1021.1mb 64f 67f
So 09/25 11:54 6 10 mph 1021.1mb 64f 67f
11:48 7 13 mph 1021.1mb - -
11:42 8 14 mph 1021.1mb - -
11:36 8 10 mph 1021.2mb - -
11:30 7 10 mph 1021.4mb 64f 67f
11:24 7 9 mph 1021.5mb 64f 67f
11:18 2 6 mph 1021.5mb 64f 65f
11:12 2 3 mph 1021.5mb 64f 65f
11:06 1 3 mph 1021.6mb 64f 65f
11:00 2
mph
1021.6mb 64f 65f
10:54  -  2 mph 1021.6mb 64f 65f
10:48 1 2 mph 1021.6mb 64f -
10:42  -  2 mph 1021.7mb 64f -
10:36 2
mph
1021.7mb 64f -
10:30 2 3 mph 1021.8mb 64f 66f
10:24 1 3 mph 1021.8mb 64f 66f
10:18  -  2 mph 1022mb 64f 67f
10:12 2 7 mph 1022mb 64f 69f
10:06 6 9 mph 1022mb 64f 69f
10:00 2 5 mph 1022mb 64f 68f
9:54 5 8 mph 1022.1mb 64f 68f
9:48 3 7 mph 1022.1mb 64f 68f
9:42 2 7 mph 1022.1mb 64f 68f
9:36 2 5 mph 1022.3mb 64f 68f
9:30 5 9 mph 1022.2mb 64f 69f
9:24 6 8 mph 1022.3mb 64f 69f
9:18 6 7 mph 1022.4mb 65f 69f
9:12 2 3 mph 1022.5mb 65f 68f
9:06  -  2 mph 1022.5mb 65f 68f
9:00 1 5 mph 1022.6mb 65f 69f
8:54 1 3 mph 1022.6mb 65f 69f
8:48  -  5 mph 1022.6mb 65f 69f
8:42 5 8 mph 1022.6mb 65f 70f
8:36 3 7 mph 1022.7mb 65f 70f
8:30 2 5 mph 1022.6mb 65f 68f
8:24 2 5 mph 1022.5mb 65f 68f
8:18  -  2 mph 1022.6mb 65f 68f
8:12  -  2 mph 1022.7mb 65f 69f
8:06  -  1 mph 1022.7mb 65f 69f
8:00 2 3 mph 1022.7mb 65f 70f
7:54 2 6 mph 1022.8mb 65f 70f
7:48 5 6 mph 1022.8mb 65f 70f
7:42 2 3 mph 1022.8mb 65f 71f
7:36  -  2 mph 1022.8mb 65f 70f
7:30 2 3 mph 1022.9mb 65f 69f
7:24 3 5 mph 1022.9mb 65f 69f
7:18 1 3 mph - 65f 70f
7:12 3 6 mph - 65f 71f
7:06 3 6 mph - 65f 71f
7:00 2 5 mph 1023mb 65f 71f
6:54 3 6 mph 1023.1mb 65f 71f
6:48 3 5 mph - 65f 72f
6:42 1 2 mph - 65f 72f
6:36  -  1 mph - 65f 72f
6:30  -  1 mph 1023.3mb 65f 71f
6:24  -  2 mph 1023.4mb 65f 72f
6:18  -  3 mph 1023.5mb 65f 71f
6:12 1 5 mph 1023.6mb 65f 70f
6:06 1 3 mph 1023.7mb 64f 70f
6:00 3 5 mph 1023.7mb 65f 69f
5:54 2 6 mph 1023.8mb 65f 69f
5:48 1 5 mph 1023.8mb 65f 70f
5:42 2 3 mph 1023.9mb 64f 69f
5:36 2 3 mph 1023.9mb 64f 69f
5:30 3 5 mph 1023.9mb 65f 70f
5:24 3 5 mph 1024mb 64f 71f
5:18 2 3 mph 1024mb 64f 72f
5:12 2
mph
1024mb 64f 72f
5:06 1 2 mph 1024.2mb 64f 71f
5:00 2
mph
1024.4mb 65f 71f
4:54 1 2 mph 1024.4mb 65f 71f
4:48 1 2 mph 1024.5mb 64f -
4:42 1 2 mph 1024.6mb 65f -
4:36 2
mph
1024.7mb 65f -
4:30 1 2 mph - 65f 70f
4:24 1 2 mph - 65f 72f
4:18  -  2 mph 1025mb 65f 72f
4:12 2 3 mph 1025mb 65f 73f
4:06  -  2 mph 1025mb 65f 74f
4:00  -  2 mph 1025.1mb 65f 74f
3:54 2 3 mph 1025.2mb 64f 72f
3:48  -  2 mph 1025.2mb 64f -
3:42 1 2 mph 1025.3mb 64f -
3:36 1 2 mph 1025.4mb 64f -
3:30 1 2 mph 1025.5mb 64f 72f
3:24 1 2 mph 1025.7mb 64f 70f
3:18 1 2 mph 1025.8mb - 71f
3:12  -  2 mph 1025.9mb - 70f
3:06 1 2 mph 1026mb - 69f
3:00 2 3 mph 1026.2mb 64f 69f
2:54 2 3 mph 1026.2mb 64f 68f
2:48 2 3 mph 1026.3mb 64f 69f
2:42 1 2 mph 1026.3mb 64f 69f
2:36 1 2 mph 1026.3mb 64f 68f
2:30 1 3 mph 1026.3mb 64f 67f
2:24 2 3 mph 1026.5mb 64f 66f
2:18 3
mph
1026.6mb 64f 66f
2:12 1 5 mph 1026.7mb 64f 67f
2:06 2 5 mph 1026.8mb 64f 68f
2:00 3
mph
1026.9mb 64f 67f
1:54 3 6 mph 1027mb 63f 67f
1:48 3 5 mph 1027mb 63f 69f
1:42 1 2 mph 1027.1mb 63f 69f
1:36 2
mph
1027.2mb 63f 70f
1:30 2 3 mph 1027.2mb 63f 70f
1:24 2
mph
1027.3mb 63f 69f
1:18 2
mph
1027.3mb 63f 69f
1:12 2 7 mph 1027.3mb 64f 70f
1:06 5 6 mph 1027.3mb 64f 69f
1:00 5 6 mph 1027.4mb 64f 69f
12:54 6 7 mph 1027.5mb 64f 68f
12:48 5 8 mph 1027.5mb 64f 68f
12:42 7 8 mph 1027.6mb 63f 67f
12:36 6 7 mph 1027.6mb 63f 66f
12:30 6 7 mph 1027.6mb 64f 66f
12:24 5 7 mph 1027.8mb 64f 66f
12:18 5 8 mph 1027.8mb 64f 66f
12:12 6 8 mph 1027.9mb 64f 65f
12:06 6 8 mph 1027.9mb 64f 64f
12:00 5 10 mph 1027.9mb 64f 65f
11:54 5 10 mph 1028mb 64f 64f
11:48 2 6 mph 1028.1mb 64f 65f
11:42 3 6 mph 1028.2mb 64f 64f
11:36 3 5 mph 1028.3mb 64f 64f
11:30 2 3 mph 1028.3mb 64f 64f
11:24 1 5 mph 1028.3mb 64f 64f
11:18 5 7 mph 1028.3mb 64f 62f
11:12 5 9 mph 1028.3mb 64f 62f
11:06 7 9 mph 1028.4mb 64f 62f
11:00 2 7 mph 1028.4mb 64f 63f
10:54 2 7 mph 1028.4mb 64f 62f
10:48 6 9 mph 1028.5mb 64f 62f
10:42 7 9 mph 1028.6mb 64f 61f
10:36 5 8 mph 1028.6mb 64f 61f
10:30 2 10 mph 1028.5mb 64f 62f
10:24 5 7 mph 1028.5mb 64f 61f
10:18 3 7 mph 1028.5mb 64f 61f
10:12 2 5 mph 1028.5mb 64f 61f
10:06 3 7 mph 1028.6mb 64f 61f
10:00 2 7 mph 1028.6mb 64f 60f
9:54 6 10 mph 1028.6mb 64f 60f
9:48 3 8 mph 1028.6mb 64f 60f
9:42 5 8 mph 1028.5mb 64f 60f
9:36 1 5 mph 1028.5mb 64f 60f
9:30 2 3 mph 1028.6mb 64f 60f
9:24 1 7 mph 1028.6mb 64f 60f
9:18 2 5 mph 1028.6mb 64f 59f
9:12 2 6 mph 1028.6mb 64f 59f
9:06 2 6 mph 1028.6mb 64f 59f
9:00 2 6 mph 1028.5mb 64f 59f
8:54 3 6 mph 1028.4mb 64f 59f
8:48 5 6 mph 1028.5mb 64f 59f
8:42 2 5 mph 1028.5mb 64f 59f
8:36 2 5 mph 1028.5mb 64f 59f
8:30 3 6 mph 1028.4mb 64f 59f
8:24 2 6 mph 1028.4mb 64f 59f
8:18 2 5 mph 1028.5mb 64f 59f
8:12 2 7 mph 1028.5mb 64f 59f
8:06 5 7 mph 1028.6mb 64f 59f
8:00 1 6 mph 1028.4mb 64f 59f
7:54 5 6 mph 1028.3mb 64f 59f
7:48 3 6 mph 1028.2mb 64f 59f
7:42 3 7 mph 1028.2mb 64f 59f
7:36 3 6 mph 1028.2mb 64f 58f
7:30 3 6 mph 1028.2mb 64f 59f
7:24 2 6 mph 1028.2mb 64f 59f
7:18 1 5 mph 1028.2mb 64f 58f
7:12 2 6 mph 1028.2mb 64f 58f
7:06 3 6 mph 1028.2mb 64f 58f
7:00 2 7 mph 1028.1mb 64f 59f
6:54 2 6 mph 1028.1mb 64f 59f
6:48 3 7 mph 1028.1mb 64f 59f
6:42 5 7 mph 1028.1mb 64f 58f
6:36 3 5 mph 1028.1mb 64f 59f
6:30 2 6 mph 1028.1mb 64f 59f
6:24 3 6 mph 1028.1mb 64f 59f
6:18 3 5 mph 1028mb 64f 59f
6:12 2 5 mph 1028mb 64f 59f
6:06 2 3 mph 1028mb 64f 58f
6:00 3 5 mph 1028mb 64f 58f
5:54 2 3 mph 1028mb 64f 58f
5:48 1 3 mph 1027.9mb 64f 59f
5:42 1 5 mph 1027.9mb 64f 58f
5:36 2 6 mph 1027.9mb 64f 58f
5:30 3 6 mph 1027.9mb 63f 58f
5:24 3 6 mph 1027.9mb 64f 59f
5:18 2 5 mph 1028mb 64f 59f
5:12  -  2 mph 1028mb 64f 59f
5:06 1 3 mph 1028mb 64f 59f
5:00 1 2 mph 1028mb 64f 59f
4:54  -  3 mph 1028mb 64f 59f
4:48 1 3 mph 1028mb 64f 59f
4:42  -  3 mph 1028mb 64f 59f
4:36 1 2 mph 1027.9mb 64f 59f
4:30  -  3 mph 1028mb 64f 59f
4:24 1 3 mph 1028mb 64f 59f
4:18 1 2 mph 1027.9mb 64f 59f
4:12 1 3 mph 1028mb 64f 59f
4:06 2 3 mph 1028mb 64f 59f
4:00 1 2 mph 1028mb 64f 59f
3:54 2 3 mph 1028mb 64f 59f
3:48 2 3 mph 1028.1mb 64f 60f
3:42  -  2 mph 1028mb 64f 59f
3:36 1 3 mph 1027.9mb 64f 59f
3:30  -  2 mph 1028mb 64f 60f
3:24 1 5 mph 1028mb 64f 60f
3:18 2 3 mph 1028.1mb 64f 60f
3:12  -  2 mph 1028.1mb 64f 60f
3:06 2 3 mph 1028.1mb 64f 60f
3:00 1 2 mph 1028mb 64f 60f
2:54  -  2 mph 1028.1mb 64f 60f
2:48 3 5 mph 1028.2mb 64f 60f
2:42  -  1 mph 1028.1mb 64f 60f
2:36 2
mph
1028.1mb 64f 60f
2:30  -  1 mph 1028.2mb 64f 60f
2:24 1 3 mph 1028.2mb 64f 60f
2:18 2 3 mph 1028.3mb 64f 60f
2:12 2 3 mph 1028.4mb 64f 60f
2:06 2 3 mph 1028.4mb 64f 60f
2:00 2
mph
1028.4mb 64f 60f
1:54 2 3 mph 1028.4mb 64f 60f
1:48 1 2 mph 1028.4mb 64f 60f
1:42  -  2 mph 1028.4mb 64f 61f
1:36 2 5 mph 1028.4mb 64f 60f
1:30 3 5 mph 1028.4mb 64f 61f
1:24 2 3 mph 1028.5mb 64f 61f
1:18 1
mph
1028.5mb 64f 60f
1:12  -  1 mph 1028.6mb 64f 60f
1:06  -  1 mph 1028.5mb 64f 61f
1:00 1 3 mph 1028.6mb 64f 61f
12:54 2 3 mph 1028.6mb 64f 61f
12:48 1 2 mph 1028.6mb 64f 61f
12:42 1 2 mph 1028.6mb 64f 61f
12:36 1 5 mph 1028.6mb 64f 61f
12:30 3 5 mph 1028.5mb 64f 61f
12:24  -  2 mph 1028.6mb 64f 61f
12:18 1 2 mph 1028.6mb 63f 61f
12:12 1 2 mph 1028.7mb 63f 61f
12:06  -  2 mph 1028.6mb 62f 61f
12:00 2 3 mph 1028.5mb 62f 61f
Sa 09/24 11:54  -  2 mph 1028.6mb 63f 61f
11:48 2
mph
1028.6mb 64f -
11:42 1 2 mph 1028.6mb 64f -
11:36 1
mph
1028.6mb 64f -
11:30  -  2 mph 1028.5mb 64f 61f
11:24 1 2 mph 1028.5mb 64f 61f
11:18 2 5 mph 1028.4mb 64f 62f
11:12 2 3 mph 1028.3mb 64f 61f
11:06 3 6 mph 1028.4mb 64f 61f
11:00 3 7 mph 1028.4mb 63f 61f
10:54 2 5 mph 1028.3mb 64f 61f
10:48 3 7 mph - - -
10:42 3 6 mph - - -
10:36 6 7 mph - - -
10:30  -  1 mph 1028.2mb 64f 62f
10:24  -  6 mph 1028.1mb 64f 62f
10:18 3 7 mph 1027.9mb 64f 62f
10:12 2 5 mph 1027.9mb 64f 62f
10:06 3 6 mph 1027.8mb 64f 62f
10:00 3 5 mph 1027.7mb 64f 62f
9:54 3 6 mph 1027.7mb 63f 62f
9:48 2 7 mph 1027.7mb 63f 62f
9:42 3 7 mph 1027.7mb 63f 62f
9:36 6 8 mph 1027.7mb 63f 62f
9:30 5 8 mph 1027.7mb 63f 62f
9:24 6 8 mph 1027.6mb 63f 62f
9:18 7 9 mph 1027.5mb 63f 62f
9:12 5 6 mph 1027.4mb 63f 62f
9:06 5 7 mph 1027.4mb 64f 62f
9:00 6 7 mph 1027.4mb 64f 63f
8:54 5 7 mph 1027.4mb 64f 63f
8:48 6 8 mph 1027.4mb 64f 63f
8:42 6 7 mph 1027.3mb 64f 63f